Lavaca Bay — WDF2105 — position and weather

sailwx.info

Track history (hours):
 
Tides and Currents Weather Stations Pressure Air Temp Water Temp Dewpoint Dewpoint Depression Visibility Wind Speed Wind Dir Waves Ship Positions

Lavaca Bay

Owner: Higman Barge Lines, Inc, Orange, TX. More information available from US FCC via Universal Licensing System and Coast Guard Vessel Documentation Center.

Last reported at 2015-Jul-08 01:33 UTC. Time now 2015-Jul-08 02:16 UTC.
Position N 29°46' W 095°05'.

Length 24 m; draft 3 m.

Type: Towing. MMSI: 367424940.

Date/timePositionNaut miles runAvg speedWind from/ knotsBaromVisibWave heightAir tempDewpointWater temp
2015-Jul-08 01:33N 29°46' W 095°05'1 0.0
2015-Jul-06 11:11N 29°46' W 095°07'0 0.0
2015-Jul-06 08:30N 29°46' W 095°07'0 0.0
2015-Jul-06 07:23N 29°46' W 095°07'0 0.0
2015-Jul-06 06:30N 29°46' W 095°07'0 0.0
2015-Jul-06 05:33N 29°46' W 095°07'0 0.0
2015-Jul-06 04:33N 29°46' W 095°07'0 0.0
2015-Jul-06 03:33N 29°46' W 095°07'0 0.0
2015-Jul-06 02:33N 29°46' W 095°07'0 0.0
2015-Jul-06 01:32N 29°46' W 095°07'0 0.0
2015-Jul-06 00:33N 29°46' W 095°07'0 0.0
2015-Jul-05 23:31N 29°46' W 095°07'0 0.0
2015-Jul-05 22:33N 29°46' W 095°07'0 0.0
2015-Jul-05 21:31N 29°46' W 095°07'0 0.0
2015-Jul-05 20:33N 29°46' W 095°07'0 0.0
2015-Jul-05 19:33N 29°46' W 095°07'0 0.1
2015-Jul-05 17:22N 29°46' W 095°07'1 1.2
2015-Jul-05 16:33N 29°45' W 095°06'1 0.5
2015-Jul-05 15:29N 29°45' W 095°06'1 0.6
2015-Jul-05 14:33N 29°45' W 095°06'0 0.0
2015-Jul-05 13:25N 29°45' W 095°06'0 0.0
2015-Jul-05 11:28N 29°45' W 095°06'0 0.0
2015-Jul-05 10:22N 29°45' W 095°06'0 0.0
2015-Jul-05 09:33N 29°45' W 095°06'0 0.0
2015-Jul-05 08:31N 29°45' W 095°06'0 0.0
2015-Jul-05 07:33N 29°45' W 095°06'0 0.0
2015-Jul-05 06:32N 29°45' W 095°06'0 0.0
2015-Jul-05 05:33N 29°45' W 095°06'0 0.0
2015-Jul-05 04:33N 29°45' W 095°06'0 0.0
2015-Jul-05 03:32N 29°45' W 095°06'0 0.0
2015-Jul-05 02:33N 29°45' W 095°06'0 0.0
2015-Jul-05 01:33N 29°45' W 095°06'0 0.0
2015-Jul-05 00:33N 29°45' W 095°06'2 0.1
2015-Jul-03 13:29N 29°44' W 095°09'3 3.4
2015-Jul-03 12:33N 29°44' W 095°12'4 4.3
2015-Jul-03 11:32N 29°44' W 095°07'2 0.2
2015-Jul-03 03:29N 29°46' W 095°07'0 0.0
2015-Jul-02 07:33N 29°46' W 095°07'0 0.0
2015-Jul-02 06:31N 29°46' W 095°07'0 0.0
2015-Jul-02 03:29N 29°46' W 095°07'0 0.0
2015-Jul-02 02:29N 29°46' W 095°07'0 0.0
2015-Jul-02 01:33N 29°46' W 095°07'0 0.0
2015-Jul-01 20:28N 29°46' W 095°07'0 0.0
2015-Jul-01 19:27N 29°46' W 095°07'0 0.0
2015-Jul-01 18:33N 29°46' W 095°07'0 0.0
2015-Jul-01 17:27N 29°46' W 095°07'0 0.0
2015-Jul-01 16:27N 29°46' W 095°07'0 0.0
2015-Jul-01 15:26N 29°46' W 095°07'0 0.0
2015-Jul-01 13:21N 29°46' W 095°07'0 0.0
2015-Jul-01 12:32N 29°46' W 095°07'0 0.0
2015-Jul-01 11:31N 29°46' W 095°07'0 0.0
2015-Jul-01 09:30N 29°46' W 095°07'0 0.0
2015-Jul-01 08:33N 29°46' W 095°07'0 0.0
2015-Jul-01 07:17N 29°46' W 095°07'1 0.6
2015-Jul-01 05:33N 29°46' W 095°05'4 3.9
2015-Jul-01 04:33N 29°44' W 095°02'6 5.9
2015-Jul-01 03:33N 29°39' W 094°58'8 7.9
2015-Jul-01 02:33N 29°32' W 094°54'7 7.2
2015-Jul-01 01:33N 29°25' W 094°50'  
2015-Jun-28 05:22N 30°13' W 091°19'0 0.1
2015-Jun-28 03:33N 30°13' W 091°19'  
Track history (hours):
 
Tides and Currents Weather Stations Pressure Air Temp Water Temp Dewpoint Dewpoint Depression Visibility Wind Speed Wind Dir Waves Ship Positions

Lavaca Bay

Owner: Higman Barge Lines, Inc, Orange, TX. More information available from US FCC via Universal Licensing System and Coast Guard Vessel Documentation Center.

Last reported at 2015-Jul-08 01:33 UTC. Time now 2015-Jul-08 02:16 UTC.
Position N 29°46' W 095°05'.

Length 24 m; draft 3 m.

Type: Towing. MMSI: 367424940.

Date/timePositionNaut miles runAvg speedWind from/ knotsBaromVisibWave heightAir tempDewpointWater temp
2015-Jul-08 01:33N 29°46' W 095°05'1 0.0
2015-Jul-06 11:11N 29°46' W 095°07'0 0.0
2015-Jul-06 08:30N 29°46' W 095°07'0 0.0
2015-Jul-06 07:23N 29°46' W 095°07'0 0.0
2015-Jul-06 06:30N 29°46' W 095°07'0 0.0
2015-Jul-06 05:33N 29°46' W 095°07'0 0.0
2015-Jul-06 04:33N 29°46' W 095°07'0 0.0
2015-Jul-06 03:33N 29°46' W 095°07'0 0.0
2015-Jul-06 02:33N 29°46' W 095°07'0 0.0
2015-Jul-06 01:32N 29°46' W 095°07'0 0.0
2015-Jul-06 00:33N 29°46' W 095°07'0 0.0
2015-Jul-05 23:31N 29°46' W 095°07'0 0.0
2015-Jul-05 22:33N 29°46' W 095°07'0 0.0
2015-Jul-05 21:31N 29°46' W 095°07'0 0.0
2015-Jul-05 20:33N 29°46' W 095°07'0 0.0
2015-Jul-05 19:33N 29°46' W 095°07'0 0.1
2015-Jul-05 17:22N 29°46' W 095°07'1 1.2
2015-Jul-05 16:33N 29°45' W 095°06'1 0.5
2015-Jul-05 15:29N 29°45' W 095°06'1 0.6
2015-Jul-05 14:33N 29°45' W 095°06'0 0.0
2015-Jul-05 13:25N 29°45' W 095°06'0 0.0
2015-Jul-05 11:28N 29°45' W 095°06'0 0.0
2015-Jul-05 10:22N 29°45' W 095°06'0 0.0
2015-Jul-05 09:33N 29°45' W 095°06'0 0.0
2015-Jul-05 08:31N 29°45' W 095°06'0 0.0
2015-Jul-05 07:33N 29°45' W 095°06'0 0.0
2015-Jul-05 06:32N 29°45' W 095°06'0 0.0
2015-Jul-05 05:33N 29°45' W 095°06'0 0.0
2015-Jul-05 04:33N 29°45' W 095°06'0 0.0
2015-Jul-05 03:32N 29°45' W 095°06'0 0.0
2015-Jul-05 02:33N 29°45' W 095°06'0 0.0
2015-Jul-05 01:33N 29°45' W 095°06'0 0.0
2015-Jul-05 00:33N 29°45' W 095°06'2 0.1
2015-Jul-03 13:29N 29°44' W 095°09'3 3.4
2015-Jul-03 12:33N 29°44' W 095°12'4 4.3
2015-Jul-03 11:32N 29°44' W 095°07'2 0.2
2015-Jul-03 03:29N 29°46' W 095°07'0 0.0
2015-Jul-02 07:33N 29°46' W 095°07'0 0.0
2015-Jul-02 06:31N 29°46' W 095°07'0 0.0
2015-Jul-02 03:29N 29°46' W 095°07'0 0.0
2015-Jul-02 02:29N 29°46' W 095°07'0 0.0
2015-Jul-02 01:33N 29°46' W 095°07'0 0.0
2015-Jul-01 20:28N 29°46' W 095°07'0 0.0
2015-Jul-01 19:27N 29°46' W 095°07'0 0.0
2015-Jul-01 18:33N 29°46' W 095°07'0 0.0
2015-Jul-01 17:27N 29°46' W 095°07'0 0.0
2015-Jul-01 16:27N 29°46' W 095°07'0 0.0
2015-Jul-01 15:26N 29°46' W 095°07'0 0.0
2015-Jul-01 13:21N 29°46' W 095°07'0 0.0
2015-Jul-01 12:32N 29°46' W 095°07'0 0.0
2015-Jul-01 11:31N 29°46' W 095°07'0 0.0
2015-Jul-01 09:30N 29°46' W 095°07'0 0.0
2015-Jul-01 08:33N 29°46' W 095°07'0 0.0
2015-Jul-01 07:17N 29°46' W 095°07'1 0.6
2015-Jul-01 05:33N 29°46' W 095°05'4 3.9
2015-Jul-01 04:33N 29°44' W 095°02'6 5.9
2015-Jul-01 03:33N 29°39' W 094°58'8 7.9
2015-Jul-01 02:33N 29°32' W 094°54'7 7.2
2015-Jul-01 01:33N 29°25' W 094°50'  
2015-Jun-28 05:22N 30°13' W 091°19'0 0.1
2015-Jun-28 03:33N 30°13' W 091°19'  

Dump ship's entire track history